sensor_id;sensor_type;location;lat;lon;timestamp;temperature;humidity
14993;DHT22;7592;51.088;13.732;2023-05-03T00:03:38;11.20;99.90
14993;DHT22;7592;51.088;13.732;2023-05-03T00:08:30;11.20;99.90
14993;DHT22;7592;51.088;13.732;2023-05-03T00:13:23;11.30;99.90
14993;DHT22;7592;51.088;13.732;2023-05-03T00:18:15;11.30;99.90
14993;DHT22;7592;51.088;13.732;2023-05-03T00:23:07;11.40;99.90
14993;DHT22;7592;51.088;13.732;2023-05-03T00:27:59;11.40;99.90
14993;DHT22;7592;51.088;13.732;2023-05-03T00:32:52;11.30;99.90
14993;DHT22;7592;51.088;13.732;2023-05-03T00:37:44;11.30;99.90
14993;DHT22;7592;51.088;13.732;2023-05-03T00:42:36;11.30;99.90
14993;DHT22;7592;51.088;13.732;2023-05-03T00:47:28;11.30;99.90
14993;DHT22;7592;51.088;13.732;2023-05-03T00:52:20;11.30;99.90
14993;DHT22;7592;51.088;13.732;2023-05-03T00:57:13;11.30;99.90
14993;DHT22;7592;51.088;13.732;2023-05-03T01:02:05;11.20;99.90
14993;DHT22;7592;51.088;13.732;2023-05-03T01:17:27;11.00;99.90
14993;DHT22;7592;51.088;13.732;2023-05-03T01:27:32;10.80;99.90
14993;DHT22;7592;51.088;13.732;2023-05-03T01:32:31;10.80;99.90
14993;DHT22;7592;51.088;13.732;2023-05-03T01:37:27;10.80;99.90
14993;DHT22;7592;51.088;13.732;2023-05-03T01:42:19;10.70;99.90
14993;DHT22;7592;51.088;13.732;2023-05-03T01:47:12;10.70;99.90
14993;DHT22;7592;51.088;13.732;2023-05-03T01:52:06;10.60;99.90
14993;DHT22;7592;51.088;13.732;2023-05-03T01:56:58;10.50;99.90
14993;DHT22;7592;51.088;13.732;2023-05-03T02:01:50;10.50;99.90
14993;DHT22;7592;51.088;13.732;2023-05-03T02:06:42;10.50;99.90
14993;DHT22;7592;51.088;13.732;2023-05-03T02:11:34;10.50;99.90
14993;DHT22;7592;51.088;13.732;2023-05-03T02:16:26;10.40;99.90
14993;DHT22;7592;51.088;13.732;2023-05-03T02:21:19;10.40;99.90
14993;DHT22;7592;51.088;13.732;2023-05-03T02:26:11;10.40;99.90
14993;DHT22;7592;51.088;13.732;2023-05-03T02:31:03;10.40;99.90
14993;DHT22;7592;51.088;13.732;2023-05-03T02:35:58;10.20;99.90
14993;DHT22;7592;51.088;13.732;2023-05-03T02:40:51;10.20;99.90
14993;DHT22;7592;51.088;13.732;2023-05-03T02:45:43;10.10;99.90
14993;DHT22;7592;51.088;13.732;2023-05-03T02:50:37;10.10;99.90
14993;DHT22;7592;51.088;13.732;2023-05-03T02:55:30;10.10;99.90
14993;DHT22;7592;51.088;13.732;2023-05-03T03:00:22;9.90;99.90
14993;DHT22;7592;51.088;13.732;2023-05-03T03:05:14;9.80;99.90
14993;DHT22;7592;51.088;13.732;2023-05-03T03:10:12;9.80;99.90
14993;DHT22;7592;51.088;13.732;2023-05-03T03:15:06;9.80;99.90
14993;DHT22;7592;51.088;13.732;2023-05-03T03:20:00;9.80;99.90
14993;DHT22;7592;51.088;13.732;2023-05-03T03:24:57;10.00;99.90
14993;DHT22;7592;51.088;13.732;2023-05-03T03:29:52;10.00;99.90
14993;DHT22;7592;51.088;13.732;2023-05-03T03:34:44;10.00;99.90
14993;DHT22;7592;51.088;13.732;2023-05-03T03:39:37;9.90;99.90
14993;DHT22;7592;51.088;13.732;2023-05-03T03:44:31;9.80;99.90
14993;DHT22;7592;51.088;13.732;2023-05-03T03:49:23;9.70;99.90
14993;DHT22;7592;51.088;13.732;2023-05-03T03:54:16;9.60;99.90
14993;DHT22;7592;51.088;13.732;2023-05-03T03:59:12;9.60;99.90
14993;DHT22;7592;51.088;13.732;2023-05-03T04:04:05;9.70;99.90
14993;DHT22;7592;51.088;13.732;2023-05-03T04:08:58;9.90;99.90
14993;DHT22;7592;51.088;13.732;2023-05-03T04:13:50;9.90;99.90
14993;DHT22;7592;51.088;13.732;2023-05-03T04:18:42;10.00;99.90
14993;DHT22;7592;51.088;13.732;2023-05-03T04:23:34;10.00;99.90
14993;DHT22;7592;51.088;13.732;2023-05-03T04:28:29;9.90;99.90
14993;DHT22;7592;51.088;13.732;2023-05-03T04:33:21;10.10;99.90
14993;DHT22;7592;51.088;13.732;2023-05-03T04:38:16;10.20;99.90
14993;DHT22;7592;51.088;13.732;2023-05-03T04:43:10;10.20;99.90
14993;DHT22;7592;51.088;13.732;2023-05-03T04:48:08;10.30;99.90
14993;DHT22;7592;51.088;13.732;2023-05-03T04:53:01;10.30;99.90
14993;DHT22;7592;51.088;13.732;2023-05-03T04:57:56;10.40;99.90
14993;DHT22;7592;51.088;13.732;2023-05-03T05:02:48;10.70;99.90
14993;DHT22;7592;51.088;13.732;2023-05-03T05:07:40;11.00;99.90
14993;DHT22;7592;51.088;13.732;2023-05-03T05:12:34;11.20;99.90
14993;DHT22;7592;51.088;13.732;2023-05-03T05:17:29;11.50;99.90
14993;DHT22;7592;51.088;13.732;2023-05-03T05:22:23;11.90;99.90
14993;DHT22;7592;51.088;13.732;2023-05-03T05:27:20;12.10;99.90
14993;DHT22;7592;51.088;13.732;2023-05-03T05:32:16;12.20;99.90
14993;DHT22;7592;51.088;13.732;2023-05-03T05:37:08;12.50;99.90
14993;DHT22;7592;51.088;13.732;2023-05-03T05:42:01;12.50;99.90
14993;DHT22;7592;51.088;13.732;2023-05-03T05:46:56;13.10;99.90
14993;DHT22;7592;51.088;13.732;2023-05-03T05:51:49;13.70;99.90
14993;DHT22;7592;51.088;13.732;2023-05-03T05:56:41;14.40;99.90
14993;DHT22;7592;51.088;13.732;2023-05-03T06:01:34;15.50;99.90
14993;DHT22;7592;51.088;13.732;2023-05-03T06:06:28;15.70;99.90
14993;DHT22;7592;51.088;13.732;2023-05-03T06:11:22;15.90;99.70
14993;DHT22;7592;51.088;13.732;2023-05-03T06:16:14;15.90;98.10
14993;DHT22;7592;51.088;13.732;2023-05-03T06:21:07;16.40;96.00
14993;DHT22;7592;51.088;13.732;2023-05-03T06:26:02;17.30;94.90
14993;DHT22;7592;51.088;13.732;2023-05-03T06:30:54;17.90;92.80
14993;DHT22;7592;51.088;13.732;2023-05-03T06:35:47;18.80;90.00
14993;DHT22;7592;51.088;13.732;2023-05-03T06:40:41;22.10;78.80
14993;DHT22;7592;51.088;13.732;2023-05-03T06:45:35;26.60;58.60
14993;DHT22;7592;51.088;13.732;2023-05-03T06:50:27;25.80;54.20
14993;DHT22;7592;51.088;13.732;2023-05-03T06:55:19;28.80;51.40
14993;DHT22;7592;51.088;13.732;2023-05-03T07:00:12;27.50;48.70
14993;DHT22;7592;51.088;13.732;2023-05-03T07:05:04;29.50;48.90
14993;DHT22;7592;51.088;13.732;2023-05-03T07:09:58;31.80;44.70
14993;DHT22;7592;51.088;13.732;2023-05-03T07:14:50;31.30;42.90
14993;DHT22;7592;51.088;13.732;2023-05-03T07:19:42;31.20;42.20
14993;DHT22;7592;51.088;13.732;2023-05-03T07:24:35;32.90;41.70
14993;DHT22;7592;51.088;13.732;2023-05-03T07:29:28;34.30;38.40
14993;DHT22;7592;51.088;13.732;2023-05-03T07:34:20;35.10;38.50
14993;DHT22;7592;51.088;13.732;2023-05-03T07:39:14;34.70;37.80
14993;DHT22;7592;51.088;13.732;2023-05-03T07:44:06;33.70;38.00
14993;DHT22;7592;51.088;13.732;2023-05-03T07:48:58;33.30;38.90
14993;DHT22;7592;51.088;13.732;2023-05-03T07:53:50;34.40;37.40
14993;DHT22;7592;51.088;13.732;2023-05-03T07:58:43;35.90;36.80
14993;DHT22;7592;51.088;13.732;2023-05-03T08:03:39;34.60;36.70
14993;DHT22;7592;51.088;13.732;2023-05-03T08:08:32;36.30;36.30
14993;DHT22;7592;51.088;13.732;2023-05-03T08:13:24;36.50;35.40
14993;DHT22;7592;51.088;13.732;2023-05-03T08:18:17;34.70;35.80
14993;DHT22;7592;51.088;13.732;2023-05-03T08:23:10;32.00;38.10
14993;DHT22;7592;51.088;13.732;2023-05-03T08:28:02;32.30;36.90
14993;DHT22;7592;51.088;13.732;2023-05-03T08:32:55;34.50;35.20
14993;DHT22;7592;51.088;13.732;2023-05-03T08:37:48;35.00;35.30
14993;DHT22;7592;51.088;13.732;2023-05-03T08:42:44;36.00;34.20
14993;DHT22;7592;51.088;13.732;2023-05-03T08:47:37;33.40;35.90
14993;DHT22;7592;51.088;13.732;2023-05-03T08:52:33;32.40;36.30
14993;DHT22;7592;51.088;13.732;2023-05-03T08:57:26;32.50;36.30
14993;DHT22;7592;51.088;13.732;2023-05-03T09:02:19;31.80;36.40
14993;DHT22;7592;51.088;13.732;2023-05-03T09:07:12;29.00;38.60
14993;DHT22;7592;51.088;13.732;2023-05-03T09:12:07;28.20;39.50
14993;DHT22;7592;51.088;13.732;2023-05-03T09:17:17;27.30;40.80
14993;DHT22;7592;51.088;13.732;2023-05-03T09:22:11;25.50;42.80
14993;DHT22;7592;51.088;13.732;2023-05-03T09:27:17;25.30;43.00
14993;DHT22;7592;51.088;13.732;2023-05-03T09:32:10;28.10;42.10
14993;DHT22;7592;51.088;13.732;2023-05-03T09:37:02;28.40;39.50
14993;DHT22;7592;51.088;13.732;2023-05-03T09:41:55;25.70;41.70
14993;DHT22;7592;51.088;13.732;2023-05-03T09:47:06;25.10;43.40
14993;DHT22;7592;51.088;13.732;2023-05-03T09:51:59;25.60;42.80
14993;DHT22;7592;51.088;13.732;2023-05-03T09:56:55;28.30;40.20
14993;DHT22;7592;51.088;13.732;2023-05-03T10:01:54;31.80;38.10
14993;DHT22;7592;51.088;13.732;2023-05-03T10:06:48;30.00;39.20
14993;DHT22;7592;51.088;13.732;2023-05-03T10:11:47;27.30;41.60
14993;DHT22;7592;51.088;13.732;2023-05-03T10:16:44;25.70;42.90
14993;DHT22;7592;51.088;13.732;2023-05-03T10:22:07;30.10;40.30
14993;DHT22;7592;51.088;13.732;2023-05-03T10:26:59;33.10;35.90
14993;DHT22;7592;51.088;13.732;2023-05-03T10:31:52;32.70;36.80
14993;DHT22;7592;51.088;13.732;2023-05-03T10:36:46;29.40;38.40
14993;DHT22;7592;51.088;13.732;2023-05-03T10:41:40;28.40;40.30
14993;DHT22;7592;51.088;13.732;2023-05-03T10:46:33;31.60;38.10
14993;DHT22;7592;51.088;13.732;2023-05-03T10:51:31;32.80;36.20
14993;DHT22;7592;51.088;13.732;2023-05-03T10:56:28;31.40;36.90
14993;DHT22;7592;51.088;13.732;2023-05-03T11:01:20;29.80;38.20
14993;DHT22;7592;51.088;13.732;2023-05-03T11:06:31;27.90;39.80
14993;DHT22;7592;51.088;13.732;2023-05-03T11:11:24;29.00;39.40
14993;DHT22;7592;51.088;13.732;2023-05-03T11:16:16;29.10;37.70
14993;DHT22;7592;51.088;13.732;2023-05-03T11:21:10;29.60;38.20
14993;DHT22;7592;51.088;13.732;2023-05-03T11:26:05;31.00;36.90
14993;DHT22;7592;51.088;13.732;2023-05-03T11:30:57;31.30;37.60
14993;DHT22;7592;51.088;13.732;2023-05-03T11:35:49;28.70;38.30
14993;DHT22;7592;51.088;13.732;2023-05-03T11:40:45;25.40;42.60
14993;DHT22;7592;51.088;13.732;2023-05-03T11:45:45;22.90;46.00
14993;DHT22;7592;51.088;13.732;2023-05-03T11:50:47;20.80;49.00
14993;DHT22;7592;51.088;13.732;2023-05-03T11:55:44;19.20;51.50
14993;DHT22;7592;51.088;13.732;2023-05-03T12:00:42;18.20;52.20
14993;DHT22;7592;51.088;13.732;2023-05-03T12:05:34;17.70;53.30
14993;DHT22;7592;51.088;13.732;2023-05-03T12:10:31;17.40;53.70
14993;DHT22;7592;51.088;13.732;2023-05-03T12:15:34;17.30;53.70
14993;DHT22;7592;51.088;13.732;2023-05-03T12:20:29;17.30;55.40
14993;DHT22;7592;51.088;13.732;2023-05-03T12:25:25;16.90;54.70
14993;DHT22;7592;51.088;13.732;2023-05-03T12:30:22;17.00;55.50
14993;DHT22;7592;51.088;13.732;2023-05-03T12:35:16;17.20;54.70
14993;DHT22;7592;51.088;13.732;2023-05-03T12:40:11;17.20;54.80
14993;DHT22;7592;51.088;13.732;2023-05-03T12:45:10;17.10;54.60
14993;DHT22;7592;51.088;13.732;2023-05-03T12:50:04;17.10;54.60
14993;DHT22;7592;51.088;13.732;2023-05-03T12:54:58;17.40;54.40
14993;DHT22;7592;51.088;13.732;2023-05-03T12:59:54;17.20;55.60
14993;DHT22;7592;51.088;13.732;2023-05-03T13:04:53;17.20;55.10
14993;DHT22;7592;51.088;13.732;2023-05-03T13:09:51;17.00;55.50
14993;DHT22;7592;51.088;13.732;2023-05-03T13:14:50;16.90;56.90
14993;DHT22;7592;51.088;13.732;2023-05-03T13:19:43;16.80;56.60
14993;DHT22;7592;51.088;13.732;2023-05-03T13:24:39;16.90;56.50
14993;DHT22;7592;51.088;13.732;2023-05-03T13:29:31;17.20;56.90
14993;DHT22;7592;51.088;13.732;2023-05-03T13:34:23;17.20;56.40
14993;DHT22;7592;51.088;13.732;2023-05-03T13:39:15;16.90;57.50
14993;DHT22;7592;51.088;13.732;2023-05-03T13:44:08;16.90;57.70
14993;DHT22;7592;51.088;13.732;2023-05-03T13:49:00;17.10;57.30
14993;DHT22;7592;51.088;13.732;2023-05-03T13:53:53;17.20;56.90
14993;DHT22;7592;51.088;13.732;2023-05-03T13:58:45;17.40;57.40
14993;DHT22;7592;51.088;13.732;2023-05-03T14:03:37;17.40;58.10
14993;DHT22;7592;51.088;13.732;2023-05-03T14:08:30;17.00;57.50
14993;DHT22;7592;51.088;13.732;2023-05-03T14:13:22;16.60;58.20
14993;DHT22;7592;51.088;13.732;2023-05-03T14:18:15;16.30;58.40
14993;DHT22;7592;51.088;13.732;2023-05-03T14:23:07;16.40;59.10
14993;DHT22;7592;51.088;13.732;2023-05-03T14:28:00;16.60;58.40
14993;DHT22;7592;51.088;13.732;2023-05-03T14:32:52;16.40;58.30
14993;DHT22;7592;51.088;13.732;2023-05-03T14:37:48;16.30;58.20
14993;DHT22;7592;51.088;13.732;2023-05-03T14:42:40;16.40;59.10
14993;DHT22;7592;51.088;13.732;2023-05-03T14:47:32;16.30;59.30
14993;DHT22;7592;51.088;13.732;2023-05-03T14:52:25;16.10;59.60
14993;DHT22;7592;51.088;13.732;2023-05-03T14:57:17;16.30;60.20
14993;DHT22;7592;51.088;13.732;2023-05-03T15:02:09;16.40;60.10
14993;DHT22;7592;51.088;13.732;2023-05-03T15:07:01;16.60;59.90
14993;DHT22;7592;51.088;13.732;2023-05-03T15:11:53;16.50;59.30
14993;DHT22;7592;51.088;13.732;2023-05-03T15:16:46;16.30;59.60
14993;DHT22;7592;51.088;13.732;2023-05-03T15:21:46;16.40;59.80
14993;DHT22;7592;51.088;13.732;2023-05-03T15:26:38;16.30;60.40
14993;DHT22;7592;51.088;13.732;2023-05-03T15:31:30;16.30;59.60
14993;DHT22;7592;51.088;13.732;2023-05-03T15:36:23;16.30;60.20
14993;DHT22;7592;51.088;13.732;2023-05-03T15:41:15;16.30;60.80
14993;DHT22;7592;51.088;13.732;2023-05-03T15:46:07;16.20;61.40
14993;DHT22;7592;51.088;13.732;2023-05-03T15:50:59;16.00;61.20
14993;DHT22;7592;51.088;13.732;2023-05-03T15:55:54;16.00;61.90
14993;DHT22;7592;51.088;13.732;2023-05-03T16:00:49;16.00;61.90
14993;DHT22;7592;51.088;13.732;2023-05-03T16:05:43;16.00;61.70
14993;DHT22;7592;51.088;13.732;2023-05-03T16:10:38;15.90;62.30
14993;DHT22;7592;51.088;13.732;2023-05-03T16:15:30;15.90;62.30
14993;DHT22;7592;51.088;13.732;2023-05-03T16:20:22;16.00;62.40
14993;DHT22;7592;51.088;13.732;2023-05-03T16:25:14;15.90;63.10
14993;DHT22;7592;51.088;13.732;2023-05-03T16:30:08;15.90;63.50
14993;DHT22;7592;51.088;13.732;2023-05-03T16:35:01;15.80;64.20
14993;DHT22;7592;51.088;13.732;2023-05-03T16:39:54;15.70;63.40
14993;DHT22;7592;51.088;13.732;2023-05-03T16:44:46;15.60;64.00
14993;DHT22;7592;51.088;13.732;2023-05-03T16:49:38;15.50;65.40
14993;DHT22;7592;51.088;13.732;2023-05-03T16:54:31;15.40;65.10
14993;DHT22;7592;51.088;13.732;2023-05-03T16:59:23;15.40;65.50
14993;DHT22;7592;51.088;13.732;2023-05-03T17:04:16;15.30;66.50
14993;DHT22;7592;51.088;13.732;2023-05-03T17:09:09;15.10;66.70
14993;DHT22;7592;51.088;13.732;2023-05-03T17:14:01;15.00;67.60
14993;DHT22;7592;51.088;13.732;2023-05-03T17:18:54;14.90;66.90
14993;DHT22;7592;51.088;13.732;2023-05-03T17:23:46;14.80;67.40
14993;DHT22;7592;51.088;13.732;2023-05-03T17:28:39;14.70;68.40
14993;DHT22;7592;51.088;13.732;2023-05-03T17:33:32;14.60;68.10
14993;DHT22;7592;51.088;13.732;2023-05-03T17:38:24;14.50;68.30
14993;DHT22;7592;51.088;13.732;2023-05-03T17:43:16;14.50;70.30
14993;DHT22;7592;51.088;13.732;2023-05-03T17:48:09;14.40;71.10
14993;DHT22;7592;51.088;13.732;2023-05-03T17:53:02;14.20;72.10
14993;DHT22;7592;51.088;13.732;2023-05-03T17:57:54;14.00;72.90
14993;DHT22;7592;51.088;13.732;2023-05-03T18:02:47;13.90;73.30
14993;DHT22;7592;51.088;13.732;2023-05-03T18:07:39;13.80;74.30
14993;DHT22;7592;51.088;13.732;2023-05-03T18:12:32;13.50;75.50
14993;DHT22;7592;51.088;13.732;2023-05-03T18:17:28;13.40;75.90
14993;DHT22;7592;51.088;13.732;2023-05-03T18:22:20;13.20;76.90
14993;DHT22;7592;51.088;13.732;2023-05-03T18:27:12;13.10;79.50
14993;DHT22;7592;51.088;13.732;2023-05-03T18:32:05;12.90;80.80
14993;DHT22;7592;51.088;13.732;2023-05-03T18:36:57;12.70;81.60
14993;DHT22;7592;51.088;13.732;2023-05-03T18:41:49;12.60;81.30
14993;DHT22;7592;51.088;13.732;2023-05-03T18:46:41;12.70;82.10
14993;DHT22;7592;51.088;13.732;2023-05-03T18:51:35;12.70;82.90
14993;DHT22;7592;51.088;13.732;2023-05-03T18:56:27;12.60;84.50
14993;DHT22;7592;51.088;13.732;2023-05-03T19:01:21;12.40;86.90
14993;DHT22;7592;51.088;13.732;2023-05-03T19:06:13;12.30;90.80
14993;DHT22;7592;51.088;13.732;2023-05-03T19:11:09;12.20;93.00
14993;DHT22;7592;51.088;13.732;2023-05-03T19:16:02;12.20;96.50
14993;DHT22;7592;51.088;13.732;2023-05-03T19:20:54;12.20;98.60
14993;DHT22;7592;51.088;13.732;2023-05-03T19:25:47;12.00;99.90
14993;DHT22;7592;51.088;13.732;2023-05-03T19:30:40;11.90;99.90
14993;DHT22;7592;51.088;13.732;2023-05-03T19:35:39;11.70;99.90
14993;DHT22;7592;51.088;13.732;2023-05-03T19:40:32;11.40;99.90
14993;DHT22;7592;51.088;13.732;2023-05-03T19:45:24;11.20;99.90
14993;DHT22;7592;51.088;13.732;2023-05-03T19:50:16;11.00;99.90
14993;DHT22;7592;51.088;13.732;2023-05-03T19:55:09;10.90;99.90
14993;DHT22;7592;51.088;13.732;2023-05-03T20:00:04;10.70;99.90
14993;DHT22;7592;51.088;13.732;2023-05-03T20:04:57;10.40;99.90
14993;DHT22;7592;51.088;13.732;2023-05-03T20:09:50;10.30;99.90
14993;DHT22;7592;51.088;13.732;2023-05-03T20:14:42;10.30;99.90
14993;DHT22;7592;51.088;13.732;2023-05-03T20:19:34;10.10;99.90
14993;DHT22;7592;51.088;13.732;2023-05-03T20:24:26;9.90;99.90
14993;DHT22;7592;51.088;13.732;2023-05-03T20:29:18;9.70;99.90
14993;DHT22;7592;51.088;13.732;2023-05-03T20:34:10;9.70;99.90
14993;DHT22;7592;51.088;13.732;2023-05-03T20:39:03;9.50;99.90
14993;DHT22;7592;51.088;13.732;2023-05-03T20:43:55;9.40;99.90
14993;DHT22;7592;51.088;13.732;2023-05-03T20:48:50;9.40;99.90
14993;DHT22;7592;51.088;13.732;2023-05-03T20:53:42;9.30;99.90
14993;DHT22;7592;51.088;13.732;2023-05-03T20:58:34;9.20;99.90
14993;DHT22;7592;51.088;13.732;2023-05-03T21:03:26;9.10;99.90
14993;DHT22;7592;51.088;13.732;2023-05-03T21:08:18;9.00;99.90
14993;DHT22;7592;51.088;13.732;2023-05-03T21:13:10;9.00;99.90
14993;DHT22;7592;51.088;13.732;2023-05-03T21:18:03;8.90;99.90
14993;DHT22;7592;51.088;13.732;2023-05-03T21:22:57;8.70;99.90
14993;DHT22;7592;51.088;13.732;2023-05-03T21:27:49;8.70;99.90
14993;DHT22;7592;51.088;13.732;2023-05-03T21:32:41;8.80;99.90
14993;DHT22;7592;51.088;13.732;2023-05-03T21:37:34;8.60;99.90
14993;DHT22;7592;51.088;13.732;2023-05-03T21:42:27;8.50;99.90
14993;DHT22;7592;51.088;13.732;2023-05-03T21:47:20;8.40;99.90
14993;DHT22;7592;51.088;13.732;2023-05-03T21:52:12;8.20;99.90
14993;DHT22;7592;51.088;13.732;2023-05-03T21:57:04;8.20;99.90
14993;DHT22;7592;51.088;13.732;2023-05-03T22:01:56;8.10;99.90
14993;DHT22;7592;51.088;13.732;2023-05-03T22:06:49;8.00;99.90
14993;DHT22;7592;51.088;13.732;2023-05-03T22:11:41;7.80;99.90
14993;DHT22;7592;51.088;13.732;2023-05-03T22:16:35;7.90;99.90
14993;DHT22;7592;51.088;13.732;2023-05-03T22:21:28;7.70;99.90
14993;DHT22;7592;51.088;13.732;2023-05-03T22:26:20;7.50;99.90
14993;DHT22;7592;51.088;13.732;2023-05-03T22:31:13;7.50;99.90
14993;DHT22;7592;51.088;13.732;2023-05-03T22:36:05;7.40;99.90
14993;DHT22;7592;51.088;13.732;2023-05-03T22:40:58;7.40;99.90
14993;DHT22;7592;51.088;13.732;2023-05-03T22:45:49;7.30;99.90
14993;DHT22;7592;51.088;13.732;2023-05-03T22:50:42;7.20;99.90
14993;DHT22;7592;51.088;13.732;2023-05-03T22:55:34;7.20;99.90
14993;DHT22;7592;51.088;13.732;2023-05-03T23:00:26;7.10;99.90
14993;DHT22;7592;51.088;13.732;2023-05-03T23:05:18;7.00;99.90
14993;DHT22;7592;51.088;13.732;2023-05-03T23:10:11;6.90;99.90
14993;DHT22;7592;51.088;13.732;2023-05-03T23:15:05;6.90;99.90
14993;DHT22;7592;51.088;13.732;2023-05-03T23:19:57;6.90;99.90
14993;DHT22;7592;51.088;13.732;2023-05-03T23:24:50;6.80;99.90
14993;DHT22;7592;51.088;13.732;2023-05-03T23:29:42;6.80;99.90
14993;DHT22;7592;51.088;13.732;2023-05-03T23:34:35;6.80;99.90
14993;DHT22;7592;51.088;13.732;2023-05-03T23:39:28;6.70;99.90
14993;DHT22;7592;51.088;13.732;2023-05-03T23:44:20;6.60;99.90
14993;DHT22;7592;51.088;13.732;2023-05-03T23:49:12;6.50;99.90
14993;DHT22;7592;51.088;13.732;2023-05-03T23:54:04;6.60;99.90
14993;DHT22;7592;51.088;13.732;2023-05-03T23:58:56;6.50;99.90
